sensor_id;sensor_type;location;lat;lon;timestamp;P1;durP1;ratioP1;P2;durP2;ratioP2
72406;SDS011;60396;47.550;18.828;2023-05-10T00:00:28;5.65;;;1.83;;
72406;SDS011;60396;47.550;18.828;2023-05-10T00:02:56;6.37;;;2.00;;
72406;SDS011;60396;47.550;18.828;2023-05-10T00:05:24;6.07;;;1.90;;
72406;SDS011;60396;47.550;18.828;2023-05-10T00:07:51;7.50;;;2.30;;
72406;SDS011;60396;47.550;18.828;2023-05-10T00:10:19;7.78;;;2.72;;
72406;SDS011;60396;47.550;18.828;2023-05-10T00:12:47;9.15;;;2.00;;
72406;SDS011;60396;47.550;18.828;2023-05-10T00:15:14;7.07;;;2.40;;
72406;SDS011;60396;47.550;18.828;2023-05-10T00:17:42;8.98;;;2.30;;
72406;SDS011;60396;47.550;18.828;2023-05-10T00:20:10;6.47;;;1.90;;
72406;SDS011;60396;47.550;18.828;2023-05-10T00:22:38;6.68;;;2.20;;
72406;SDS011;60396;47.550;18.828;2023-05-10T00:25:06;7.60;;;2.78;;
72406;SDS011;60396;47.550;18.828;2023-05-10T00:27:34;7.72;;;2.62;;
72406;SDS011;60396;47.550;18.828;2023-05-10T00:30:01;6.72;;;2.20;;
72406;SDS011;60396;47.550;18.828;2023-05-10T00:32:30;8.03;;;2.70;;
72406;SDS011;60396;47.550;18.828;2023-05-10T00:34:57;9.52;;;2.78;;
72406;SDS011;60396;47.550;18.828;2023-05-10T00:37:26;8.43;;;2.97;;
72406;SDS011;60396;47.550;18.828;2023-05-10T00:39:54;7.15;;;2.97;;
72406;SDS011;60396;47.550;18.828;2023-05-10T00:42:22;7.45;;;3.10;;
72406;SDS011;60396;47.550;18.828;2023-05-10T00:44:51;6.70;;;2.83;;
72406;SDS011;60396;47.550;18.828;2023-05-10T00:47:19;7.40;;;3.00;;
72406;SDS011;60396;47.550;18.828;2023-05-10T00:49:46;7.90;;;2.67;;
72406;SDS011;60396;47.550;18.828;2023-05-10T00:52:14;7.47;;;3.00;;
72406;SDS011;60396;47.550;18.828;2023-05-10T00:54:42;6.97;;;2.65;;
72406;SDS011;60396;47.550;18.828;2023-05-10T00:57:10;7.83;;;2.70;;
72406;SDS011;60396;47.550;18.828;2023-05-10T00:59:38;8.05;;;3.03;;
72406;SDS011;60396;47.550;18.828;2023-05-10T01:02:06;8.73;;;2.42;;
72406;SDS011;60396;47.550;18.828;2023-05-10T01:04:34;6.07;;;2.50;;
72406;SDS011;60396;47.550;18.828;2023-05-10T01:07:02;6.47;;;2.42;;
72406;SDS011;60396;47.550;18.828;2023-05-10T01:09:30;9.00;;;2.60;;
72406;SDS011;60396;47.550;18.828;2023-05-10T01:11:59;8.00;;;2.80;;
72406;SDS011;60396;47.550;18.828;2023-05-10T01:14:28;7.95;;;2.67;;
72406;SDS011;60396;47.550;18.828;2023-05-10T01:16:57;6.43;;;2.60;;
72406;SDS011;60396;47.550;18.828;2023-05-10T01:19:26;9.90;;;3.17;;
72406;SDS011;60396;47.550;18.828;2023-05-10T01:22:02;8.67;;;3.00;;
72406;SDS011;60396;47.550;18.828;2023-05-10T01:27:51;7.10;;;2.45;;
72406;SDS011;60396;47.550;18.828;2023-05-10T01:30:30;7.60;;;3.05;;
72406;SDS011;60396;47.550;18.828;2023-05-10T01:38:32;6.65;;;3.05;;
72406;SDS011;60396;47.550;18.828;2023-05-10T01:41:18;7.47;;;2.92;;
72406;SDS011;60396;47.550;18.828;2023-05-10T01:46:39;8.40;;;3.22;;
72406;SDS011;60396;47.550;18.828;2023-05-10T01:49:09;7.03;;;2.90;;
72406;SDS011;60396;47.550;18.828;2023-05-10T01:51:40;7.82;;;2.92;;
72406;SDS011;60396;47.550;18.828;2023-05-10T01:54:10;7.90;;;3.22;;
72406;SDS011;60396;47.550;18.828;2023-05-10T01:56:40;8.05;;;2.78;;
72406;SDS011;60396;47.550;18.828;2023-05-10T01:59:11;8.70;;;3.12;;
72406;SDS011;60396;47.550;18.828;2023-05-10T02:01:41;10.00;;;3.30;;
72406;SDS011;60396;47.550;18.828;2023-05-10T02:04:10;7.93;;;3.12;;
72406;SDS011;60396;47.550;18.828;2023-05-10T02:06:39;6.65;;;2.53;;
72406;SDS011;60396;47.550;18.828;2023-05-10T02:09:07;7.93;;;2.97;;
72406;SDS011;60396;47.550;18.828;2023-05-10T02:11:40;7.22;;;2.90;;
72406;SDS011;60396;47.550;18.828;2023-05-10T02:14:09;9.30;;;3.37;;
72406;SDS011;60396;47.550;18.828;2023-05-10T02:16:37;9.02;;;3.40;;
72406;SDS011;60396;47.550;18.828;2023-05-10T02:19:06;9.80;;;3.15;;
72406;SDS011;60396;47.550;18.828;2023-05-10T02:21:36;7.47;;;3.40;;
72406;SDS011;60396;47.550;18.828;2023-05-10T02:24:05;8.73;;;3.03;;
72406;SDS011;60396;47.550;18.828;2023-05-10T02:26:34;9.10;;;3.10;;
72406;SDS011;60396;47.550;18.828;2023-05-10T02:29:02;9.65;;;3.58;;
72406;SDS011;60396;47.550;18.828;2023-05-10T02:31:31;7.50;;;2.97;;
72406;SDS011;60396;47.550;18.828;2023-05-10T02:34:01;9.52;;;3.40;;
72406;SDS011;60396;47.550;18.828;2023-05-10T02:36:29;8.98;;;3.08;;
72406;SDS011;60396;47.550;18.828;2023-05-10T02:38:58;7.90;;;3.20;;
72406;SDS011;60396;47.550;18.828;2023-05-10T02:41:27;7.30;;;3.10;;
72406;SDS011;60396;47.550;18.828;2023-05-10T02:43:56;6.87;;;2.75;;
72406;SDS011;60396;47.550;18.828;2023-05-10T02:46:24;7.60;;;3.08;;
72406;SDS011;60396;47.550;18.828;2023-05-10T02:48:52;8.45;;;3.30;;
72406;SDS011;60396;47.550;18.828;2023-05-10T02:51:20;10.17;;;2.80;;
72406;SDS011;60396;47.550;18.828;2023-05-10T02:53:52;7.18;;;2.80;;
72406;SDS011;60396;47.550;18.828;2023-05-10T02:56:24;8.13;;;2.78;;
72406;SDS011;60396;47.550;18.828;2023-05-10T02:58:56;6.87;;;2.65;;
72406;SDS011;60396;47.550;18.828;2023-05-10T03:01:24;7.07;;;2.70;;
72406;SDS011;60396;47.550;18.828;2023-05-10T03:03:51;7.30;;;3.57;;
72406;SDS011;60396;47.550;18.828;2023-05-10T03:06:19;6.95;;;2.65;;
72406;SDS011;60396;47.550;18.828;2023-05-10T03:08:47;6.70;;;2.83;;
72406;SDS011;60396;47.550;18.828;2023-05-10T03:14:49;6.72;;;2.97;;
72406;SDS011;60396;47.550;18.828;2023-05-10T03:19:54;8.27;;;2.70;;
72406;SDS011;60396;47.550;18.828;2023-05-10T03:22:34;8.70;;;2.62;;
72406;SDS011;60396;47.550;18.828;2023-05-10T03:25:06;8.15;;;2.90;;
72406;SDS011;60396;47.550;18.828;2023-05-10T03:27:35;6.62;;;2.62;;
72406;SDS011;60396;47.550;18.828;2023-05-10T03:30:04;8.43;;;3.07;;
72406;SDS011;60396;47.550;18.828;2023-05-10T03:32:33;8.05;;;2.70;;
72406;SDS011;60396;47.550;18.828;2023-05-10T03:35:06;7.22;;;2.70;;
72406;SDS011;60396;47.550;18.828;2023-05-10T03:37:37;9.55;;;2.97;;
72406;SDS011;60396;47.550;18.828;2023-05-10T03:40:05;7.57;;;3.10;;
72406;SDS011;60396;47.550;18.828;2023-05-10T03:42:33;9.13;;;2.80;;
72406;SDS011;60396;47.550;18.828;2023-05-10T03:45:01;8.88;;;2.85;;
72406;SDS011;60396;47.550;18.828;2023-05-10T03:47:29;9.18;;;3.33;;
72406;SDS011;60396;47.550;18.828;2023-05-10T03:49:57;9.00;;;2.72;;
72406;SDS011;60396;47.550;18.828;2023-05-10T03:52:25;6.97;;;3.10;;
72406;SDS011;60396;47.550;18.828;2023-05-10T03:54:54;11.07;;;2.90;;
72406;SDS011;60396;47.550;18.828;2023-05-10T03:57:22;8.27;;;2.95;;
72406;SDS011;60396;47.550;18.828;2023-05-10T03:59:50;7.60;;;2.83;;
72406;SDS011;60396;47.550;18.828;2023-05-10T04:02:18;6.70;;;2.60;;
72406;SDS011;60396;47.550;18.828;2023-05-10T04:04:46;7.00;;;2.90;;
72406;SDS011;60396;47.550;18.828;2023-05-10T04:07:14;7.93;;;3.00;;
72406;SDS011;60396;47.550;18.828;2023-05-10T04:09:41;10.10;;;3.42;;
72406;SDS011;60396;47.550;18.828;2023-05-10T04:12:09;7.20;;;2.95;;
72406;SDS011;60396;47.550;18.828;2023-05-10T04:14:37;8.00;;;3.30;;
72406;SDS011;60396;47.550;18.828;2023-05-10T04:17:06;8.05;;;3.28;;
72406;SDS011;60396;47.550;18.828;2023-05-10T04:19:34;7.47;;;3.00;;
72406;SDS011;60396;47.550;18.828;2023-05-10T04:22:01;7.15;;;2.67;;
72406;SDS011;60396;47.550;18.828;2023-05-10T04:24:30;7.75;;;2.97;;
72406;SDS011;60396;47.550;18.828;2023-05-10T04:26:57;6.95;;;3.10;;
72406;SDS011;60396;47.550;18.828;2023-05-10T04:29:25;7.00;;;2.92;;
72406;SDS011;60396;47.550;18.828;2023-05-10T04:31:54;7.10;;;2.93;;
72406;SDS011;60396;47.550;18.828;2023-05-10T04:34:22;10.52;;;2.83;;
72406;SDS011;60396;47.550;18.828;2023-05-10T04:36:50;9.35;;;3.47;;
72406;SDS011;60396;47.550;18.828;2023-05-10T04:39:17;7.82;;;2.75;;
72406;SDS011;60396;47.550;18.828;2023-05-10T04:41:45;9.50;;;3.00;;
72406;SDS011;60396;47.550;18.828;2023-05-10T04:44:13;6.70;;;2.83;;
72406;SDS011;60396;47.550;18.828;2023-05-10T04:46:40;7.55;;;3.20;;
72406;SDS011;60396;47.550;18.828;2023-05-10T04:49:08;8.70;;;2.90;;
72406;SDS011;60396;47.550;18.828;2023-05-10T04:51:36;9.00;;;3.22;;
72406;SDS011;60396;47.550;18.828;2023-05-10T04:54:03;8.07;;;2.90;;
72406;SDS011;60396;47.550;18.828;2023-05-10T04:56:33;7.53;;;2.90;;
72406;SDS011;60396;47.550;18.828;2023-05-10T04:59:01;8.52;;;3.25;;
72406;SDS011;60396;47.550;18.828;2023-05-10T05:01:28;7.47;;;2.90;;
72406;SDS011;60396;47.550;18.828;2023-05-10T05:03:56;7.40;;;2.87;;
72406;SDS011;60396;47.550;18.828;2023-05-10T05:06:24;8.05;;;3.60;;
72406;SDS011;60396;47.550;18.828;2023-05-10T05:08:52;7.50;;;3.37;;
72406;SDS011;60396;47.550;18.828;2023-05-10T05:11:20;7.95;;;2.92;;
72406;SDS011;60396;47.550;18.828;2023-05-10T05:13:48;8.40;;;3.50;;
72406;SDS011;60396;47.550;18.828;2023-05-10T05:16:15;8.40;;;3.40;;
72406;SDS011;60396;47.550;18.828;2023-05-10T05:18:44;7.78;;;3.05;;
72406;SDS011;60396;47.550;18.828;2023-05-10T05:21:17;8.00;;;3.30;;
72406;SDS011;60396;47.550;18.828;2023-05-10T05:23:47;7.95;;;2.67;;
72406;SDS011;60396;47.550;18.828;2023-05-10T05:26:14;9.15;;;3.15;;
72406;SDS011;60396;47.550;18.828;2023-05-10T05:28:42;8.32;;;3.00;;
72406;SDS011;60396;47.550;18.828;2023-05-10T05:31:10;8.85;;;4.12;;
72406;SDS011;60396;47.550;18.828;2023-05-10T05:33:37;7.60;;;3.50;;
72406;SDS011;60396;47.550;18.828;2023-05-10T05:36:05;9.55;;;3.45;;
72406;SDS011;60396;47.550;18.828;2023-05-10T05:38:33;7.45;;;3.55;;
72406;SDS011;60396;47.550;18.828;2023-05-10T05:41:01;7.18;;;3.28;;
72406;SDS011;60396;47.550;18.828;2023-05-10T05:43:28;7.47;;;2.70;;
72406;SDS011;60396;47.550;18.828;2023-05-10T05:45:56;7.10;;;2.77;;
72406;SDS011;60396;47.550;18.828;2023-05-10T05:48:26;7.90;;;2.97;;
72406;SDS011;60396;47.550;18.828;2023-05-10T05:50:54;8.02;;;2.92;;
72406;SDS011;60396;47.550;18.828;2023-05-10T05:53:24;9.55;;;3.30;;
72406;SDS011;60396;47.550;18.828;2023-05-10T05:55:55;7.72;;;3.03;;
72406;SDS011;60396;47.550;18.828;2023-05-10T05:58:24;8.27;;;3.40;;
72406;SDS011;60396;47.550;18.828;2023-05-10T06:00:52;7.78;;;3.08;;
72406;SDS011;60396;47.550;18.828;2023-05-10T06:03:20;10.18;;;3.00;;
72406;SDS011;60396;47.550;18.828;2023-05-10T06:05:48;7.22;;;3.20;;
72406;SDS011;60396;47.550;18.828;2023-05-10T06:08:15;9.70;;;3.17;;
72406;SDS011;60396;47.550;18.828;2023-05-10T06:10:43;8.43;;;3.07;;
72406;SDS011;60396;47.550;18.828;2023-05-10T06:13:12;8.93;;;3.33;;
72406;SDS011;60396;47.550;18.828;2023-05-10T06:15:40;10.32;;;2.95;;
72406;SDS011;60396;47.550;18.828;2023-05-10T06:18:08;11.57;;;3.35;;
72406;SDS011;60396;47.550;18.828;2023-05-10T06:20:35;9.50;;;3.70;;
72406;SDS011;60396;47.550;18.828;2023-05-10T06:23:03;8.20;;;2.90;;
72406;SDS011;60396;47.550;18.828;2023-05-10T06:25:31;7.80;;;3.35;;
72406;SDS011;60396;47.550;18.828;2023-05-10T06:27:58;9.80;;;3.37;;
72406;SDS011;60396;47.550;18.828;2023-05-10T06:30:27;8.85;;;3.60;;
72406;SDS011;60396;47.550;18.828;2023-05-10T06:32:56;6.80;;;2.95;;
72406;SDS011;60396;47.550;18.828;2023-05-10T06:35:24;8.33;;;2.93;;
72406;SDS011;60396;47.550;18.828;2023-05-10T06:37:52;9.45;;;2.70;;
72406;SDS011;60396;47.550;18.828;2023-05-10T06:40:20;10.73;;;3.17;;
72406;SDS011;60396;47.550;18.828;2023-05-10T06:42:48;10.02;;;3.30;;
72406;SDS011;60396;47.550;18.828;2023-05-10T06:45:15;9.77;;;3.12;;
72406;SDS011;60396;47.550;18.828;2023-05-10T06:47:44;8.13;;;3.23;;
72406;SDS011;60396;47.550;18.828;2023-05-10T06:50:12;9.02;;;3.70;;
72406;SDS011;60396;47.550;18.828;2023-05-10T06:52:39;7.97;;;2.90;;
72406;SDS011;60396;47.550;18.828;2023-05-10T06:55:27;8.10;;;3.28;;
72406;SDS011;60396;47.550;18.828;2023-05-10T06:57:56;7.37;;;3.55;;
72406;SDS011;60396;47.550;18.828;2023-05-10T07:00:24;7.73;;;3.23;;
72406;SDS011;60396;47.550;18.828;2023-05-10T07:02:51;6.95;;;3.00;;
72406;SDS011;60396;47.550;18.828;2023-05-10T07:05:19;10.05;;;2.70;;
72406;SDS011;60396;47.550;18.828;2023-05-10T07:07:48;8.50;;;3.45;;
72406;SDS011;60396;47.550;18.828;2023-05-10T07:10:15;6.97;;;2.80;;
72406;SDS011;60396;47.550;18.828;2023-05-10T07:12:43;9.33;;;3.53;;
72406;SDS011;60396;47.550;18.828;2023-05-10T07:15:11;9.43;;;3.05;;
72406;SDS011;60396;47.550;18.828;2023-05-10T07:17:38;7.82;;;2.92;;
72406;SDS011;60396;47.550;18.828;2023-05-10T07:20:07;6.75;;;2.92;;
72406;SDS011;60396;47.550;18.828;2023-05-10T07:22:36;7.05;;;3.10;;
72406;SDS011;60396;47.550;18.828;2023-05-10T07:25:03;8.73;;;2.93;;
72406;SDS011;60396;47.550;18.828;2023-05-10T07:27:31;9.45;;;2.80;;
72406;SDS011;60396;47.550;18.828;2023-05-10T07:29:59;8.02;;;3.20;;
72406;SDS011;60396;47.550;18.828;2023-05-10T07:32:27;8.98;;;3.10;;
72406;SDS011;60396;47.550;18.828;2023-05-10T07:34:55;7.75;;;2.92;;
72406;SDS011;60396;47.550;18.828;2023-05-10T07:37:23;9.93;;;3.23;;
72406;SDS011;60396;47.550;18.828;2023-05-10T07:39:51;7.43;;;2.58;;
72406;SDS011;60396;47.550;18.828;2023-05-10T07:42:18;9.18;;;2.97;;
72406;SDS011;60396;47.550;18.828;2023-05-10T07:44:46;9.88;;;2.65;;
72406;SDS011;60396;47.550;18.828;2023-05-10T07:47:14;6.78;;;2.78;;
72406;SDS011;60396;47.550;18.828;2023-05-10T07:49:41;7.10;;;2.77;;
72406;SDS011;60396;47.550;18.828;2023-05-10T07:52:09;7.30;;;2.62;;
72406;SDS011;60396;47.550;18.828;2023-05-10T07:54:37;7.20;;;2.70;;
72406;SDS011;60396;47.550;18.828;2023-05-10T07:57:05;6.03;;;2.47;;
72406;SDS011;60396;47.550;18.828;2023-05-10T07:59:33;7.90;;;2.90;;
72406;SDS011;60396;47.550;18.828;2023-05-10T08:02:01;6.37;;;2.60;;
72406;SDS011;60396;47.550;18.828;2023-05-10T08:04:29;7.53;;;3.05;;
72406;SDS011;60396;47.550;18.828;2023-05-10T08:06:56;6.93;;;2.90;;
72406;SDS011;60396;47.550;18.828;2023-05-10T08:09:24;7.50;;;2.87;;
72406;SDS011;60396;47.550;18.828;2023-05-10T08:11:52;9.13;;;3.08;;
72406;SDS011;60396;47.550;18.828;2023-05-10T08:14:19;7.00;;;2.87;;
72406;SDS011;60396;47.550;18.828;2023-05-10T08:16:47;11.20;;;2.92;;
72406;SDS011;60396;47.550;18.828;2023-05-10T08:19:15;7.70;;;2.90;;
72406;SDS011;60396;47.550;18.828;2023-05-10T08:21:46;8.13;;;2.83;;
72406;SDS011;60396;47.550;18.828;2023-05-10T08:24:14;6.37;;;2.22;;
72406;SDS011;60396;47.550;18.828;2023-05-10T08:26:42;7.10;;;2.77;;
72406;SDS011;60396;47.550;18.828;2023-05-10T08:29:10;5.72;;;2.35;;
72406;SDS011;60396;47.550;18.828;2023-05-10T08:31:37;7.10;;;2.70;;
72406;SDS011;60396;47.550;18.828;2023-05-10T08:34:05;11.32;;;2.25;;
72406;SDS011;60396;47.550;18.828;2023-05-10T08:36:33;15.13;;;2.40;;
72406;SDS011;60396;47.550;18.828;2023-05-10T08:39:00;7.13;;;2.50;;
72406;SDS011;60396;47.550;18.828;2023-05-10T08:41:28;6.65;;;2.62;;
72406;SDS011;60396;47.550;18.828;2023-05-10T08:43:57;7.18;;;2.42;;
72406;SDS011;60396;47.550;18.828;2023-05-10T08:46:25;6.35;;;2.30;;
72406;SDS011;60396;47.550;18.828;2023-05-10T08:48:54;6.05;;;2.45;;
72406;SDS011;60396;47.550;18.828;2023-05-10T08:51:23;10.93;;;2.70;;
72406;SDS011;60396;47.550;18.828;2023-05-10T08:53:53;7.00;;;2.35;;
72406;SDS011;60396;47.550;18.828;2023-05-10T08:56:21;5.60;;;2.33;;
72406;SDS011;60396;47.550;18.828;2023-05-10T08:58:49;6.45;;;2.60;;
72406;SDS011;60396;47.550;18.828;2023-05-10T09:01:18;9.18;;;2.85;;
72406;SDS011;60396;47.550;18.828;2023-05-10T09:03:46;10.77;;;2.53;;
72406;SDS011;60396;47.550;18.828;2023-05-10T09:06:14;7.43;;;2.60;;
72406;SDS011;60396;47.550;18.828;2023-05-10T09:08:42;6.55;;;2.60;;
72406;SDS011;60396;47.550;18.828;2023-05-10T09:11:11;5.85;;;2.30;;
72406;SDS011;60396;47.550;18.828;2023-05-10T09:13:39;6.32;;;2.25;;
72406;SDS011;60396;47.550;18.828;2023-05-10T09:16:06;8.60;;;2.63;;
72406;SDS011;60396;47.550;18.828;2023-05-10T09:18:48;12.90;;;2.15;;
72406;SDS011;60396;47.550;18.828;2023-05-10T09:21:16;5.57;;;2.30;;
72406;SDS011;60396;47.550;18.828;2023-05-10T09:23:44;6.78;;;2.10;;
72406;SDS011;60396;47.550;18.828;2023-05-10T09:26:15;5.12;;;1.87;;
72406;SDS011;60396;47.550;18.828;2023-05-10T09:31:20;6.68;;;2.22;;
72406;SDS011;60396;47.550;18.828;2023-05-10T09:33:49;6.57;;;2.40;;
72406;SDS011;60396;47.550;18.828;2023-05-10T09:36:16;7.10;;;2.53;;
72406;SDS011;60396;47.550;18.828;2023-05-10T09:38:51;6.05;;;2.45;;
72406;SDS011;60396;47.550;18.828;2023-05-10T09:41:22;5.27;;;2.00;;
72406;SDS011;60396;47.550;18.828;2023-05-10T09:43:55;7.60;;;2.12;;
72406;SDS011;60396;47.550;18.828;2023-05-10T09:46:23;7.47;;;2.20;;
72406;SDS011;60396;47.550;18.828;2023-05-10T09:48:51;5.93;;;1.95;;
72406;SDS011;60396;47.550;18.828;2023-05-10T09:51:24;5.07;;;1.92;;
72406;SDS011;60396;47.550;18.828;2023-05-10T09:54:15;6.40;;;1.70;;
72406;SDS011;60396;47.550;18.828;2023-05-10T09:56:43;6.37;;;1.83;;
72406;SDS011;60396;47.550;18.828;2023-05-10T09:59:11;5.87;;;1.90;;
72406;SDS011;60396;47.550;18.828;2023-05-10T10:01:39;6.03;;;1.90;;
72406;SDS011;60396;47.550;18.828;2023-05-10T10:04:09;15.68;;;2.45;;
72406;SDS011;60396;47.550;18.828;2023-05-10T10:06:38;9.40;;;2.83;;
72406;SDS011;60396;47.550;18.828;2023-05-10T10:09:06;16.42;;;2.55;;
72406;SDS011;60396;47.550;18.828;2023-05-10T10:11:35;7.72;;;1.90;;
72406;SDS011;60396;47.550;18.828;2023-05-10T10:14:04;12.05;;;2.67;;
72406;SDS011;60396;47.550;18.828;2023-05-10T10:16:32;8.93;;;2.30;;
72406;SDS011;60396;47.550;18.828;2023-05-10T10:19:00;8.33;;;2.90;;
72406;SDS011;60396;47.550;18.828;2023-05-10T10:21:28;8.18;;;2.55;;
72406;SDS011;60396;47.550;18.828;2023-05-10T10:23:56;5.47;;;2.10;;
72406;SDS011;60396;47.550;18.828;2023-05-10T10:26:28;6.00;;;2.30;;
72406;SDS011;60396;47.550;18.828;2023-05-10T10:31:58;6.87;;;2.07;;
72406;SDS011;60396;47.550;18.828;2023-05-10T10:34:31;6.32;;;2.33;;
72406;SDS011;60396;47.550;18.828;2023-05-10T10:37:04;8.52;;;2.42;;
72406;SDS011;60396;47.550;18.828;2023-05-10T10:39:32;10.30;;;2.20;;
72406;SDS011;60396;47.550;18.828;2023-05-10T10:42:00;7.07;;;2.08;;
72406;SDS011;60396;47.550;18.828;2023-05-10T10:54:50;6.43;;;2.10;;
72406;SDS011;60396;47.550;18.828;2023-05-10T10:57:19;7.03;;;2.10;;
72406;SDS011;60396;47.550;18.828;2023-05-10T10:59:49;7.60;;;2.10;;
72406;SDS011;60396;47.550;18.828;2023-05-10T11:02:33;13.60;;;1.98;;
72406;SDS011;60396;47.550;18.828;2023-05-10T11:10:50;5.20;;;1.70;;
72406;SDS011;60396;47.550;18.828;2023-05-10T11:13:30;6.32;;;2.00;;
72406;SDS011;60396;47.550;18.828;2023-05-10T11:16:09;6.25;;;1.98;;
72406;SDS011;60396;47.550;18.828;2023-05-10T11:18:58;4.87;;;1.73;;
72406;SDS011;60396;47.550;18.828;2023-05-10T11:21:31;5.80;;;1.87;;
72406;SDS011;60396;47.550;18.828;2023-05-10T11:24:00;6.30;;;1.60;;
72406;SDS011;60396;47.550;18.828;2023-05-10T11:26:32;6.57;;;1.50;;
72406;SDS011;60396;47.550;18.828;2023-05-10T11:29:01;4.12;;;1.40;;
72406;SDS011;60396;47.550;18.828;2023-05-10T11:31:31;7.25;;;1.67;;
72406;SDS011;60396;47.550;18.828;2023-05-10T11:33:59;7.40;;;1.60;;
72406;SDS011;60396;47.550;18.828;2023-05-10T11:36:35;6.07;;;1.70;;
72406;SDS011;60396;47.550;18.828;2023-05-10T11:39:03;5.28;;;1.73;;
72406;SDS011;60396;47.550;18.828;2023-05-10T11:41:33;5.10;;;1.35;;
72406;SDS011;60396;47.550;18.828;2023-05-10T11:44:00;4.57;;;1.60;;
72406;SDS011;60396;47.550;18.828;2023-05-10T11:46:29;8.27;;;1.48;;
72406;SDS011;60396;47.550;18.828;2023-05-10T11:48:58;4.67;;;1.50;;
72406;SDS011;60396;47.550;18.828;2023-05-10T11:51:34;5.35;;;1.52;;
72406;SDS011;60396;47.550;18.828;2023-05-10T11:54:07;5.30;;;1.62;;
72406;SDS011;60396;47.550;18.828;2023-05-10T11:56:39;5.47;;;1.80;;
72406;SDS011;60396;47.550;18.828;2023-05-10T11:59:08;4.50;;;1.30;;
72406;SDS011;60396;47.550;18.828;2023-05-10T12:01:35;4.17;;;1.40;;
72406;SDS011;60396;47.550;18.828;2023-05-10T12:04:03;6.87;;;1.67;;
72406;SDS011;60396;47.550;18.828;2023-05-10T12:06:32;3.30;;;0.95;;
72406;SDS011;60396;47.550;18.828;2023-05-10T12:09:01;6.57;;;1.70;;
72406;SDS011;60396;47.550;18.828;2023-05-10T12:11:35;8.95;;;1.80;;
72406;SDS011;60396;47.550;18.828;2023-05-10T12:14:04;5.03;;;1.60;;
72406;SDS011;60396;47.550;18.828;2023-05-10T12:16:32;5.82;;;1.37;;
72406;SDS011;60396;47.550;18.828;2023-05-10T12:19:00;5.07;;;1.30;;
72406;SDS011;60396;47.550;18.828;2023-05-10T12:21:28;4.00;;;1.23;;
72406;SDS011;60396;47.550;18.828;2023-05-10T12:24:03;5.35;;;1.30;;
72406;SDS011;60396;47.550;18.828;2023-05-10T12:26:32;5.57;;;1.77;;
72406;SDS011;60396;47.550;18.828;2023-05-10T12:29:16;4.00;;;1.10;;
72406;SDS011;60396;47.550;18.828;2023-05-10T12:34:40;4.97;;;1.50;;
72406;SDS011;60396;47.550;18.828;2023-05-10T12:37:07;7.43;;;1.77;;
72406;SDS011;60396;47.550;18.828;2023-05-10T12:39:38;4.83;;;1.43;;
72406;SDS011;60396;47.550;18.828;2023-05-10T12:42:07;4.28;;;1.60;;
72406;SDS011;60396;47.550;18.828;2023-05-10T12:44:35;4.32;;;1.30;;
72406;SDS011;60396;47.550;18.828;2023-05-10T12:47:03;6.43;;;1.83;;
72406;SDS011;60396;47.550;18.828;2023-05-10T12:49:30;3.65;;;1.30;;
72406;SDS011;60396;47.550;18.828;2023-05-10T12:51:58;7.97;;;1.90;;
72406;SDS011;60396;47.550;18.828;2023-05-10T12:54:26;5.30;;;1.40;;
72406;SDS011;60396;47.550;18.828;2023-05-10T12:56:53;7.62;;;1.27;;
72406;SDS011;60396;47.550;18.828;2023-05-10T12:59:21;5.55;;;1.30;;
72406;SDS011;60396;47.550;18.828;2023-05-10T13:01:50;7.50;;;1.05;;
72406;SDS011;60396;47.550;18.828;2023-05-10T13:04:17;4.20;;;1.57;;
72406;SDS011;60396;47.550;18.828;2023-05-10T13:06:45;5.87;;;1.60;;
72406;SDS011;60396;47.550;18.828;2023-05-10T13:09:12;8.98;;;1.50;;
72406;SDS011;60396;47.550;18.828;2023-05-10T13:11:40;5.10;;;1.37;;
72406;SDS011;60396;47.550;18.828;2023-05-10T13:14:08;7.22;;;1.80;;
72406;SDS011;60396;47.550;18.828;2023-05-10T13:16:36;5.90;;;1.80;;
72406;SDS011;60396;47.550;18.828;2023-05-10T13:19:03;9.90;;;2.08;;
72406;SDS011;60396;47.550;18.828;2023-05-10T13:21:32;5.30;;;1.50;;
72406;SDS011;60396;47.550;18.828;2023-05-10T13:23:59;4.75;;;1.42;;
72406;SDS011;60396;47.550;18.828;2023-05-10T13:26:27;5.80;;;1.45;;
72406;SDS011;60396;47.550;18.828;2023-05-10T13:28:55;5.00;;;1.57;;
72406;SDS011;60396;47.550;18.828;2023-05-10T13:31:23;6.03;;;1.50;;
72406;SDS011;60396;47.550;18.828;2023-05-10T13:33:50;6.40;;;1.42;;
72406;SDS011;60396;47.550;18.828;2023-05-10T13:36:18;5.57;;;1.20;;
72406;SDS011;60396;47.550;18.828;2023-05-10T13:38:46;5.00;;;0.98;;
72406;SDS011;60396;47.550;18.828;2023-05-10T13:41:13;3.73;;;1.20;;
72406;SDS011;60396;47.550;18.828;2023-05-10T13:43:41;5.57;;;1.23;;
72406;SDS011;60396;47.550;18.828;2023-05-10T13:46:09;4.62;;;0.88;;
72406;SDS011;60396;47.550;18.828;2023-05-10T13:48:36;4.37;;;0.90;;
72406;SDS011;60396;47.550;18.828;2023-05-10T13:51:05;4.55;;;1.45;;
72406;SDS011;60396;47.550;18.828;2023-05-10T13:53:33;6.10;;;1.40;;
72406;SDS011;60396;47.550;18.828;2023-05-10T13:56:00;5.47;;;1.20;;
72406;SDS011;60396;47.550;18.828;2023-05-10T13:58:29;5.62;;;1.00;;
72406;SDS011;60396;47.550;18.828;2023-05-10T14:00:57;4.22;;;1.20;;
72406;SDS011;60396;47.550;18.828;2023-05-10T14:03:25;3.78;;;1.30;;
72406;SDS011;60396;47.550;18.828;2023-05-10T14:05:53;9.07;;;1.13;;
72406;SDS011;60396;47.550;18.828;2023-05-10T14:08:20;9.73;;;1.35;;
72406;SDS011;60396;47.550;18.828;2023-05-10T14:10:49;4.25;;;1.00;;
72406;SDS011;60396;47.550;18.828;2023-05-10T14:13:17;4.55;;;1.00;;
72406;SDS011;60396;47.550;18.828;2023-05-10T14:15:45;5.05;;;1.17;;
72406;SDS011;60396;47.550;18.828;2023-05-10T14:18:13;6.83;;;1.30;;
72406;SDS011;60396;47.550;18.828;2023-05-10T14:20:41;9.27;;;1.02;;
72406;SDS011;60396;47.550;18.828;2023-05-10T14:23:08;5.78;;;1.00;;
72406;SDS011;60396;47.550;18.828;2023-05-10T14:25:41;4.93;;;1.10;;
72406;SDS011;60396;47.550;18.828;2023-05-10T14:28:09;5.65;;;1.10;;
72406;SDS011;60396;47.550;18.828;2023-05-10T14:30:36;5.53;;;1.07;;
72406;SDS011;60396;47.550;18.828;2023-05-10T14:33:04;4.32;;;1.10;;
72406;SDS011;60396;47.550;18.828;2023-05-10T14:35:32;3.83;;;0.82;;
72406;SDS011;60396;47.550;18.828;2023-05-10T14:37:59;6.97;;;1.00;;
72406;SDS011;60396;47.550;18.828;2023-05-10T14:40:27;5.07;;;0.90;;
72406;SDS011;60396;47.550;18.828;2023-05-10T14:42:55;7.00;;;1.20;;
72406;SDS011;60396;47.550;18.828;2023-05-10T14:45:23;4.53;;;1.12;;
72406;SDS011;60396;47.550;18.828;2023-05-10T14:47:51;5.68;;;1.25;;
72406;SDS011;60396;47.550;18.828;2023-05-10T14:50:18;2.45;;;0.70;;
72406;SDS011;60396;47.550;18.828;2023-05-10T14:53:03;4.28;;;1.20;;
72406;SDS011;60396;47.550;18.828;2023-05-10T14:55:30;4.80;;;1.00;;
72406;SDS011;60396;47.550;18.828;2023-05-10T14:57:58;3.53;;;1.00;;
72406;SDS011;60396;47.550;18.828;2023-05-10T15:00:26;3.90;;;1.00;;
72406;SDS011;60396;47.550;18.828;2023-05-10T15:02:55;7.00;;;0.88;;
72406;SDS011;60396;47.550;18.828;2023-05-10T15:05:23;4.15;;;1.08;;
72406;SDS011;60396;47.550;18.828;2023-05-10T15:07:51;38.73;;;2.30;;
72406;SDS011;60396;47.550;18.828;2023-05-10T15:10:18;9.95;;;1.15;;
72406;SDS011;60396;47.550;18.828;2023-05-10T15:12:46;4.37;;;0.90;;
72406;SDS011;60396;47.550;18.828;2023-05-10T15:15:14;5.28;;;0.98;;
72406;SDS011;60396;47.550;18.828;2023-05-10T15:17:42;4.30;;;0.95;;
72406;SDS011;60396;47.550;18.828;2023-05-10T15:20:10;5.33;;;1.00;;
72406;SDS011;60396;47.550;18.828;2023-05-10T15:22:38;3.42;;;0.98;;
72406;SDS011;60396;47.550;18.828;2023-05-10T15:25:06;3.60;;;0.75;;